Time;durP1;ratioP1;P1;durP2;ratioP2;P2;SDS_P1;SDS_P2;PMS_P1;PMS_P2;Temp;Humidity;BMP_temperature;BMP_pressure;BME280_temperature;BME280_humidity;BME280_pressure;Samples;Min_cycle;Max_cycle;Signal;HPM_P1;HPM_P2
2023/05/15 00:01:41;;;;;;;3.37;3.03;;;12.60;99.90;;;;;;5046864;28;20414;-89
2023/05/15 00:04:27;;;;;;;6.97;3.63;;;12.50;99.90;;;;;;5046199;28;20924;-90
2023/05/15 00:07:22;;;;;;;4.20;3.53;;;12.50;99.90;;;;;;5045226;28;20579;-91
2023/05/15 00:10:08;;;;;;;5.30;3.80;;;12.40;99.90;;;;;;5046323;28;20457;-90
2023/05/15 00:12:56;;;;;;;5.80;3.90;;;12.30;99.90;;;;;;5042229;28;20413;-89
2023/05/15 00:15:42;;;;;;;4.40;4.00;;;12.40;99.90;;;;;;5042788;28;20465;-90
2023/05/15 00:18:27;;;;;;;5.47;3.93;;;12.30;99.90;;;;;;5049199;28;20416;-90
2023/05/15 00:21:13;;;;;;;5.03;3.70;;;12.30;99.90;;;;;;5053049;28;20441;-90
2023/05/15 00:24:00;;;;;;;6.40;3.90;;;12.30;99.90;;;;;;5047634;28;20507;-89
2023/05/15 00:26:45;;;;;;;4.40;3.77;;;12.20;99.90;;;;;;5040474;28;20728;-89
2023/05/15 00:29:31;;;;;;;6.57;3.40;;;12.20;99.90;;;;;;5046881;28;20926;-90
2023/05/15 00:32:16;;;;;;;4.87;3.63;;;12.20;99.90;;;;;;5048721;28;20416;-90
2023/05/15 00:35:03;;;;;;;5.30;4.17;;;12.10;99.90;;;;;;5046429;28;20934;-90
2023/05/15 00:37:50;;;;;;;4.33;3.00;;;12.20;99.90;;;;;;5048651;28;20422;-90
2023/05/15 00:40:38;;;;;;;4.40;4.00;;;12.20;99.90;;;;;;5051448;28;20399;-91
2023/05/15 00:43:25;;;;;;;5.30;4.23;;;12.20;99.90;;;;;;5048987;28;20515;-90
2023/05/15 00:46:17;;;;;;;6.03;3.63;;;12.20;99.90;;;;;;5050590;28;20424;-90
2023/05/15 00:49:03;;;;;;;5.60;4.20;;;12.20;99.90;;;;;;5049391;28;20858;-89
2023/05/15 00:51:50;;;;;;;5.40;4.43;;;12.20;99.90;;;;;;5051330;28;20908;-90
2023/05/15 00:54:35;;;;;;;4.93;4.07;;;12.30;99.90;;;;;;5054042;28;20443;-90
2023/05/15 00:57:24;;;;;;;4.07;3.63;;;12.30;99.90;;;;;;5049293;28;20962;-90
2023/05/15 01:00:10;;;;;;;4.87;3.90;;;12.20;99.90;;;;;;5045715;28;20429;-90
2023/05/15 01:02:59;;;;;;;4.27;3.67;;;12.20;99.90;;;;;;5045388;28;20418;-91
2023/05/15 01:05:44;;;;;;;5.63;4.17;;;12.20;99.90;;;;;;5053741;28;20420;-90
2023/05/15 01:08:38;;;;;;;6.00;5.00;;;12.10;99.90;;;;;;5052864;28;20546;-90
2023/05/15 01:11:27;;;;;;;4.80;4.10;;;12.00;99.90;;;;;;5046446;28;20493;-88
2023/05/15 01:14:14;;;;;;;3.90;3.50;;;11.90;99.90;;;;;;5051563;28;20442;-90
2023/05/15 01:16:59;;;;;;;4.63;3.53;;;11.80;99.90;;;;;;5050897;28;20444;-90
2023/05/15 01:19:46;;;;;;;7.00;4.10;;;11.90;99.90;;;;;;5052705;28;20777;-91
2023/05/15 01:22:46;;;;;;;5.03;3.90;;;11.70;99.90;;;;;;5043006;28;20886;-92
2023/05/15 01:26:08;;;;;;;4.87;3.80;;;11.80;99.90;;;;;;5047210;28;20440;-91
2023/05/15 01:29:01;;;;;;;4.53;4.00;;;11.80;99.90;;;;;;5043140;28;20453;-91
2023/05/15 01:31:53;;;;;;;7.40;3.57;;;11.70;99.90;;;;;;5035044;28;20449;-91
2023/05/15 01:34:45;;;;;;;3.60;2.97;;;11.80;99.90;;;;;;5037524;28;20838;-90
2023/05/15 01:37:34;;;;;;;4.50;4.00;;;11.80;99.90;;;;;;5047270;28;20514;-90
2023/05/15 01:40:25;;;;;;;4.57;3.60;;;11.70;99.90;;;;;;5042715;28;20442;-91
2023/05/15 01:43:14;;;;;;;4.80;4.10;;;11.60;99.90;;;;;;5051669;28;20412;-90
2023/05/15 01:46:02;;;;;;;6.17;4.70;;;11.50;99.90;;;;;;5049866;28;20424;-90
2023/05/15 01:48:49;;;;;;;4.60;3.80;;;11.50;99.90;;;;;;5048702;28;20461;-90
2023/05/15 01:51:43;;;;;;;4.10;3.70;;;11.50;99.90;;;;;;5049086;28;20441;-90
2023/05/15 01:54:31;;;;;;;4.07;3.43;;;11.60;99.90;;;;;;5051583;28;20817;-90
2023/05/15 01:57:18;;;;;;;5.33;3.40;;;11.50;99.90;;;;;;5036749;28;20502;-91
2023/05/15 02:00:05;;;;;;;5.30;3.67;;;11.40;99.90;;;;;;5045489;28;20933;-91
2023/05/15 02:02:53;;;;;;;5.67;4.03;;;11.20;99.90;;;;;;5045362;28;20428;-90
2023/05/15 02:05:39;;;;;;;8.40;3.20;;;11.20;99.90;;;;;;5089338;22;20820;-74
2023/05/15 02:08:27;;;;;;;3.90;3.50;;;11.30;99.90;;;;;;5093621;28;20446;-75
2023/05/15 02:11:13;;;;;;;4.03;3.10;;;11.20;99.90;;;;;;5085694;28;20989;-73
2023/05/15 02:14:00;;;;;;;4.30;3.43;;;11.30;99.90;;;;;;5091618;28;20805;-74
2023/05/15 02:16:46;;;;;;;4.33;3.60;;;11.30;99.90;;;;;;5100425;28;20513;-74
2023/05/15 02:19:32;;;;;;;6.30;3.50;;;11.30;99.90;;;;;;5089970;28;20443;-74
2023/05/15 02:22:18;;;;;;;4.53;3.60;;;11.30;99.90;;;;;;5093478;28;20620;-73
2023/05/15 02:25:04;;;;;;;5.40;3.23;;;11.30;99.90;;;;;;5085810;28;20569;-74
2023/05/15 02:27:56;;;;;;;9.90;3.33;;;11.20;99.90;;;;;;5088616;28;20446;-73
2023/05/15 02:30:49;;;;;;;4.43;3.83;;;11.20;99.90;;;;;;5089248;28;20474;-74
2023/05/15 02:33:41;;;;;;;8.37;3.83;;;11.10;99.90;;;;;;5088034;28;20458;-72
2023/05/15 02:36:33;;;;;;;4.07;3.60;;;11.10;99.90;;;;;;5085463;28;20538;-72
2023/05/15 02:39:22;;;;;;;8.10;3.53;;;11.00;99.90;;;;;;5090526;28;20417;-73
2023/05/15 02:42:09;;;;;;;5.40;3.80;;;10.90;99.90;;;;;;5103859;28;20507;-72
2023/05/15 02:44:55;;;;;;;4.47;3.60;;;10.90;99.90;;;;;;5090554;28;20531;-72
2023/05/15 02:47:42;;;;;;;6.47;4.07;;;10.90;99.90;;;;;;5097180;28;20429;-72
2023/05/15 02:50:28;;;;;;;4.93;3.43;;;10.90;99.90;;;;;;5085662;28;20873;-72
2023/05/15 02:53:15;;;;;;;5.67;3.83;;;10.90;99.90;;;;;;5090637;28;20966;-72
2023/05/15 02:56:01;;;;;;;8.70;4.67;;;10.70;99.90;;;;;;5086788;28;20400;-72
2023/05/15 02:58:46;;;;;;;6.40;3.90;;;10.70;99.90;;;;;;5084600;28;20494;-72
2023/05/15 03:01:32;;;;;;;7.67;4.13;;;10.70;99.90;;;;;;5086604;28;20433;-72
2023/05/15 03:04:17;;;;;;;6.27;3.47;;;10.80;99.90;;;;;;5087074;28;20544;-72
2023/05/15 03:07:03;;;;;;;4.47;3.63;;;10.90;99.90;;;;;;5090918;28;20756;-72
2023/05/15 03:09:50;;;;;;;5.00;3.10;;;10.90;99.90;;;;;;5082853;28;20441;-72
2023/05/15 03:12:35;;;;;;;4.70;4.00;;;10.70;99.90;;;;;;5090764;28;20397;-72
2023/05/15 03:15:21;;;;;;;6.97;3.37;;;10.60;99.90;;;;;;5091042;28;20406;-72
2023/05/15 03:18:07;;;;;;;6.77;3.47;;;10.40;99.90;;;;;;5096280;28;20477;-72
2023/05/15 03:20:52;;;;;;;7.73;4.20;;;10.50;99.90;;;;;;5083639;28;20489;-72
2023/05/15 03:23:38;;;;;;;5.33;3.77;;;10.40;99.90;;;;;;5085358;28;20466;-72
2023/05/15 03:26:25;;;;;;;4.00;2.97;;;10.40;99.90;;;;;;5092875;28;20438;-72
2023/05/15 03:29:11;;;;;;;8.27;3.40;;;10.30;99.90;;;;;;5081550;28;20574;-72
2023/05/15 03:31:56;;;;;;;7.67;3.53;;;10.40;99.90;;;;;;5096719;28;20444;-72
2023/05/15 03:34:42;;;;;;;6.53;3.20;;;10.30;99.90;;;;;;5086551;28;20454;-70
2023/05/15 03:37:27;;;;;;;3.63;3.20;;;10.40;99.90;;;;;;5100850;28;20454;-71
2023/05/15 03:40:14;;;;;;;3.80;3.40;;;10.30;99.90;;;;;;5083458;28;20444;-71
2023/05/15 03:43:00;;;;;;;3.83;3.23;;;10.30;99.90;;;;;;5088773;28;20415;-73
2023/05/15 03:45:46;;;;;;;6.63;3.50;;;10.20;99.90;;;;;;5098494;28;20525;-70
2023/05/15 03:48:31;;;;;;;5.37;3.57;;;10.20;99.90;;;;;;5085905;28;20458;-71
2023/05/15 03:51:17;;;;;;;7.33;3.33;;;10.20;99.90;;;;;;5092826;28;20442;-70
2023/05/15 03:54:04;;;;;;;3.60;3.17;;;10.10;99.90;;;;;;5091929;28;20825;-70
2023/05/15 03:56:49;;;;;;;4.30;3.37;;;10.20;99.90;;;;;;5096633;28;20525;-70
2023/05/15 03:59:36;;;;;;;5.13;4.27;;;10.10;99.90;;;;;;5089139;28;20876;-71
2023/05/15 04:02:21;;;;;;;4.70;4.20;;;10.00;99.90;;;;;;5090565;28;20447;-72
2023/05/15 04:05:08;;;;;;;4.30;3.60;;;9.90;99.90;;;;;;5096569;28;20443;-70
2023/05/15 04:07:53;;;;;;;4.90;3.90;;;9.90;99.90;;;;;;5093985;28;20487;-70
2023/05/15 04:10:39;;;;;;;5.20;3.50;;;10.10;99.90;;;;;;5095793;28;20458;-70
2023/05/15 04:13:24;;;;;;;3.73;3.30;;;10.20;99.90;;;;;;5094523;28;20458;-70
2023/05/15 04:16:11;;;;;;;3.90;3.23;;;10.20;99.90;;;;;;5089386;28;20802;-71
2023/05/15 04:18:57;;;;;;;7.03;3.17;;;10.20;99.90;;;;;;5090699;28;20824;-71
2023/05/15 04:21:43;;;;;;;4.37;3.80;;;10.30;99.90;;;;;;5089067;28;20477;-71
2023/05/15 04:24:28;;;;;;;4.77;3.33;;;10.30;99.90;;;;;;5091494;28;20439;-70
2023/05/15 04:27:14;;;;;;;4.73;3.40;;;10.20;99.90;;;;;;5089493;28;20430;-72
2023/05/15 04:30:00;;;;;;;4.47;3.70;;;10.30;99.90;;;;;;5091570;28;20470;-72
2023/05/15 04:32:47;;;;;;;3.70;2.97;;;10.40;99.90;;;;;;5095443;28;20430;-72
2023/05/15 04:35:33;;;;;;;6.30;3.47;;;10.50;99.90;;;;;;5090153;28;20425;-72
2023/05/15 04:38:18;;;;;;;4.23;3.80;;;10.50;99.90;;;;;;5082953;28;20425;-71
2023/05/15 04:41:03;;;;;;;4.00;3.40;;;10.50;99.90;;;;;;5105631;28;21001;-72
2023/05/15 04:43:49;;;;;;;7.17;3.20;;;10.50;99.90;;;;;;5099580;28;20441;-71
2023/05/15 04:46:36;;;;;;;4.10;3.40;;;10.50;99.90;;;;;;5097438;28;20826;-72
2023/05/15 04:49:23;;;;;;;5.87;3.90;;;10.60;99.90;;;;;;5085262;28;20438;-72
2023/05/15 04:52:08;;;;;;;6.80;4.03;;;10.40;99.90;;;;;;5098830;28;20583;-72
2023/05/15 04:54:54;;;;;;;12.67;4.30;;;10.30;99.90;;;;;;5099848;28;20492;-72
2023/05/15 04:57:40;;;;;;;4.97;3.80;;;10.30;99.90;;;;;;5092063;28;20953;-72
2023/05/15 05:00:25;;;;;;;4.10;3.70;;;10.30;99.90;;;;;;5092195;28;20792;-72
2023/05/15 05:03:11;;;;;;;9.77;4.27;;;10.30;99.90;;;;;;5095946;28;20481;-72
2023/05/15 05:05:58;;;;;;;4.20;3.63;;;10.40;99.90;;;;;;5088951;28;20517;-72
2023/05/15 05:08:43;;;;;;;6.30;3.80;;;10.50;99.90;;;;;;5085769;28;20447;-72
2023/05/15 05:11:29;;;;;;;4.30;3.67;;;10.60;99.90;;;;;;5097503;28;20955;-72
2023/05/15 05:14:15;;;;;;;9.33;3.70;;;10.60;99.90;;;;;;5090807;28;20519;-72
2023/05/15 05:17:00;;;;;;;6.40;4.53;;;10.70;99.90;;;;;;5089257;28;20451;-72
2023/05/15 05:19:46;;;;;;;5.80;4.60;;;10.80;99.90;;;;;;5092839;28;20421;-72
2023/05/15 05:22:33;;;;;;;5.47;4.57;;;11.00;99.90;;;;;;5093998;28;20442;-72
2023/05/15 05:25:19;;;;;;;7.40;3.80;;;11.00;99.90;;;;;;5094961;28;20567;-72
2023/05/15 05:28:04;;;;;;;12.23;5.03;;;11.00;99.90;;;;;;5094555;28;20734;-72
2023/05/15 05:30:51;;;;;;;7.03;5.37;;;10.80;99.90;;;;;;5089053;28;20456;-71
2023/05/15 05:33:36;;;;;;;6.97;4.27;;;10.70;99.90;;;;;;5104607;28;20522;-72
2023/05/15 05:36:21;;;;;;;6.17;4.80;;;10.90;99.90;;;;;;5095928;28;20442;-72
2023/05/15 05:39:08;;;;;;;5.97;4.47;;;11.10;99.90;;;;;;5096025;28;20453;-72
2023/05/15 05:41:53;;;;;;;9.63;4.80;;;11.30;99.90;;;;;;5095275;28;20449;-72
2023/05/15 05:44:39;;;;;;;6.23;4.73;;;11.50;99.90;;;;;;5096622;28;20601;-72
2023/05/15 05:47:25;;;;;;;5.13;4.53;;;11.80;99.90;;;;;;5095158;28;20594;-72
2023/05/15 05:50:10;;;;;;;5.67;4.43;;;12.00;99.90;;;;;;5095196;28;20467;-72
2023/05/15 05:52:56;;;;;;;6.00;4.73;;;12.10;99.90;;;;;;5097604;28;20547;-72
2023/05/15 05:55:43;;;;;;;6.40;5.43;;;12.40;99.90;;;;;;5090850;28;20479;-72
2023/05/15 05:58:28;;;;;;;8.87;5.40;;;12.50;99.90;;;;;;5099589;28;20443;-72
2023/05/15 06:01:13;;;;;;;9.10;4.70;;;12.60;99.90;;;;;;5093237;28;20504;-72
2023/05/15 06:03:59;;;;;;;6.77;4.83;;;12.70;99.90;;;;;;5093810;28;20470;-72
2023/05/15 06:06:45;;;;;;;5.97;4.80;;;12.70;99.90;;;;;;5083862;28;20830;-72
2023/05/15 06:09:30;;;;;;;14.83;4.90;;;12.80;99.90;;;;;;5093479;28;20421;-72
2023/05/15 06:12:17;;;;;;;6.50;4.50;;;12.90;99.90;;;;;;5095985;28;20588;-72
2023/05/15 06:15:02;;;;;;;6.40;4.20;;;12.90;99.90;;;;;;5087989;28;20463;-73
2023/05/15 06:17:47;;;;;;;6.00;5.10;;;12.90;99.90;;;;;;5089353;28;20419;-72
2023/05/15 06:20:33;;;;;;;5.07;4.57;;;13.00;99.90;;;;;;5095488;28;20439;-72
2023/05/15 06:23:18;;;;;;;5.77;4.47;;;13.10;99.90;;;;;;5103294;28;20572;-72
2023/05/15 06:26:04;;;;;;;5.30;4.40;;;13.20;99.90;;;;;;5091461;28;20478;-72
2023/05/15 06:28:51;;;;;;;5.40;4.50;;;13.40;99.90;;;;;;5098215;28;20439;-72
2023/05/15 06:31:37;;;;;;;6.40;5.17;;;13.40;99.90;;;;;;5096342;28;20535;-72
2023/05/15 06:34:22;;;;;;;10.90;4.00;;;13.60;99.90;;;;;;5098388;28;20467;-72
2023/05/15 06:37:08;;;;;;;6.20;4.90;;;13.70;99.90;;;;;;5092767;28;20485;-72
2023/05/15 06:39:53;;;;;;;10.53;4.87;;;13.90;99.90;;;;;;5098317;28;20563;-72
2023/05/15 06:42:39;;;;;;;6.53;5.30;;;14.10;99.90;;;;;;5091671;28;20419;-74
2023/05/15 06:45:25;;;;;;;5.73;5.13;;;14.20;99.90;;;;;;5090523;28;20418;-74
2023/05/15 06:48:11;;;;;;;4.90;3.70;;;14.40;99.90;;;;;;5095887;28;20403;-74
2023/05/15 06:50:56;;;;;;;5.20;4.60;;;14.60;99.90;;;;;;5089684;28;20869;-74
2023/05/15 06:53:42;;;;;;;5.30;4.80;;;14.70;99.90;;;;;;5098290;28;20894;-74
2023/05/15 06:56:27;;;;;;;7.80;4.70;;;14.80;99.90;;;;;;5091743;28;20421;-74
2023/05/15 06:59:13;;;;;;;5.57;4.20;;;14.90;99.90;;;;;;5096416;28;20974;-74
2023/05/15 07:02:00;;;;;;;4.90;4.00;;;15.10;99.90;;;;;;5093387;28;20574;-73
2023/05/15 07:04:45;;;;;;;7.03;4.33;;;15.20;99.90;;;;;;5091924;28;20671;-74
2023/05/15 07:07:31;;;;;;;5.87;4.80;;;15.30;99.90;;;;;;5084406;28;20782;-74
2023/05/15 07:10:16;;;;;;;6.80;5.10;;;15.40;99.90;;;;;;5095279;28;20443;-72
2023/05/15 07:13:02;;;;;;;6.23;4.70;;;15.60;99.90;;;;;;5100457;28;20414;-75
2023/05/15 07:15:47;;;;;;;5.33;4.10;;;15.50;99.90;;;;;;5084220;28;20448;-74
2023/05/15 07:18:34;;;;;;;5.53;4.30;;;15.50;99.90;;;;;;5090357;28;20843;-72
2023/05/15 07:21:19;;;;;;;4.67;3.80;;;15.60;99.90;;;;;;5098464;28;20803;-72
2023/05/15 07:24:05;;;;;;;7.37;4.37;;;15.60;99.90;;;;;;5093705;28;20466;-72
2023/05/15 07:26:51;;;;;;;5.40;4.90;;;15.60;99.90;;;;;;5090009;28;20922;-72
2023/05/15 07:29:37;;;;;;;6.23;4.60;;;15.60;99.90;;;;;;5100074;28;20981;-72
2023/05/15 07:32:22;;;;;;;6.70;4.23;;;15.70;99.90;;;;;;5097772;28;20427;-72
2023/05/15 07:35:11;;;;;;;6.07;4.23;;;15.80;99.90;;;;;;5087053;28;21028;-72
2023/05/15 07:37:56;;;;;;;5.93;4.67;;;15.80;99.90;;;;;;5101690;28;20806;-72
2023/05/15 07:40:41;;;;;;;5.90;4.90;;;15.80;99.90;;;;;;5091652;28;20523;-71
2023/05/15 07:43:27;;;;;;;5.97;4.83;;;15.80;99.90;;;;;;5103369;28;21089;-72
2023/05/15 07:46:12;;;;;;;8.30;5.07;;;15.80;99.90;;;;;;5087889;28;20448;-72
2023/05/15 07:48:58;;;;;;;6.23;4.73;;;15.90;99.90;;;;;;5100535;28;20421;-72
2023/05/15 07:51:45;;;;;;;8.10;5.10;;;16.00;99.90;;;;;;5099472;28;20466;-72
2023/05/15 07:54:31;;;;;;;6.17;5.57;;;16.10;99.90;;;;;;5091521;28;20975;-72
2023/05/15 07:57:16;;;;;;;5.67;5.10;;;16.10;99.90;;;;;;5091648;28;20970;-72
2023/05/15 08:00:07;;;;;;;6.17;5.17;;;16.30;99.90;;;;;;5087351;28;20527;-72
2023/05/15 08:02:53;;;;;;;5.80;5.20;;;16.20;99.90;;;;;;5093259;28;20444;-72
2023/05/15 08:05:38;;;;;;;6.37;5.07;;;16.10;99.90;;;;;;5082844;28;20435;-72
2023/05/15 08:08:25;;;;;;;5.63;5.10;;;16.10;99.90;;;;;;5092279;28;20433;-72
2023/05/15 08:11:11;;;;;;;5.40;4.80;;;16.10;99.90;;;;;;5099889;28;20445;-72
2023/05/15 08:13:56;;;;;;;5.00;4.43;;;16.30;99.90;;;;;;5091969;28;20481;-72
2023/05/15 08:16:42;;;;;;;6.13;5.30;;;16.40;99.90;;;;;;5094394;28;20445;-72
2023/05/15 08:19:27;;;;;;;6.40;4.80;;;16.60;99.90;;;;;;5099709;28;20419;-72
2023/05/15 08:22:12;;;;;;;5.93;5.33;;;16.60;99.90;;;;;;5096596;28;20444;-72
2023/05/15 08:25:02;;;;;;;5.63;5.00;;;16.80;99.90;;;;;;5084047;28;20467;-72
2023/05/15 08:27:47;;;;;;;7.27;5.23;;;17.00;99.90;;;;;;5094214;28;20577;-72
2023/05/15 08:30:33;;;;;;;6.20;5.50;;;16.90;99.90;;;;;;5100470;28;20625;-72
2023/05/15 08:33:18;;;;;;;6.70;4.60;;;16.90;99.90;;;;;;5105783;22;20476;-73
2023/05/15 08:36:04;;;;;;;10.50;5.67;;;17.00;99.90;;;;;;5049468;28;20442;-73
2023/05/15 08:38:50;;;;;;;5.83;5.23;;;17.00;99.90;;;;;;5038401;28;20519;-73
2023/05/15 08:41:42;;;;;;;9.87;5.43;;;17.00;99.90;;;;;;5052429;28;20811;-73
2023/05/15 08:44:28;;;;;;;6.70;4.77;;;16.90;99.90;;;;;;5048719;28;20449;-73
2023/05/15 08:47:14;;;;;;;5.63;5.13;;;17.00;99.90;;;;;;5049143;28;20494;-74
2023/05/15 08:50:05;;;;;;;7.23;5.33;;;16.90;99.90;;;;;;5057948;28;20470;-73
2023/05/15 08:52:57;;;;;;;5.30;4.80;;;17.00;99.90;;;;;;5059904;28;20876;-72
2023/05/15 08:55:42;;;;;;;8.53;5.30;;;17.10;99.90;;;;;;5048801;28;20458;-72
2023/05/15 08:58:29;;;;;;;5.97;5.17;;;17.20;99.90;;;;;;5058659;28;20827;-73
2023/05/15 09:01:16;;;;;;;5.67;4.87;;;17.10;99.90;;;;;;5055547;28;20551;-73
2023/05/15 09:04:02;;;;;;;4.77;4.27;;;17.10;99.90;;;;;;5039420;28;20832;-72
2023/05/15 09:06:47;;;;;;;8.27;5.23;;;17.20;99.90;;;;;;5047735;28;20458;-72
2023/05/15 09:09:34;;;;;;;5.50;4.87;;;17.30;99.90;;;;;;5055327;28;20450;-73
2023/05/15 09:12:21;;;;;;;5.73;4.63;;;17.40;99.90;;;;;;5049468;28;20502;-72
2023/05/15 09:15:14;;;;;;;6.90;4.50;;;17.40;99.90;;;;;;5049980;28;20469;-72
2023/05/15 09:18:01;;;;;;;9.13;6.00;;;17.40;99.90;;;;;;5047730;28;20455;-72
2023/05/15 09:20:46;;;;;;;6.27;4.50;;;17.30;99.90;;;;;;5051909;28;20445;-72
2023/05/15 09:23:32;;;;;;;8.33;4.87;;;17.40;99.90;;;;;;5052528;28;20459;-72
2023/05/15 09:26:17;;;;;;;9.00;5.33;;;17.50;99.90;;;;;;5051236;28;20412;-73
2023/05/15 09:29:04;;;;;;;5.40;4.80;;;17.70;99.90;;;;;;5053507;28;20454;-73
2023/05/15 09:31:51;;;;;;;7.83;6.17;;;17.70;99.90;;;;;;5048927;28;20478;-72
2023/05/15 09:34:39;;;;;;;9.20;6.20;;;17.70;99.90;;;;;;5047258;28;20585;-72
2023/05/15 09:37:29;;;;;;;7.80;6.10;;;17.70;99.60;;;;;;5048348;28;20450;-72
2023/05/15 09:40:18;;;;;;;7.20;6.37;;;17.70;98.60;;;;;;5046274;28;20443;-72
2023/05/15 09:43:03;;;;;;;10.03;7.00;;;17.70;98.70;;;;;;5047436;28;20534;-72
2023/05/15 09:45:49;;;;;;;12.30;7.10;;;17.80;99.90;;;;;;5051840;28;20439;-72
2023/05/15 09:48:37;;;;;;;8.13;6.40;;;17.90;99.90;;;;;;5046443;28;20514;-72
2023/05/15 09:51:22;;;;;;;6.60;5.20;;;17.80;97.00;;;;;;5049412;28;20471;-71
2023/05/15 09:54:14;;;;;;;11.63;6.30;;;17.90;99.70;;;;;;5048223;28;20467;-72
2023/05/15 09:57:08;;;;;;;10.63;6.83;;;18.00;97.10;;;;;;5052487;28;20428;-72
2023/05/15 09:59:53;;;;;;;7.23;5.97;;;18.20;96.40;;;;;;5054217;28;20839;-73
2023/05/15 10:02:40;;;;;;;5.87;4.70;;;18.20;94.80;;;;;;5047675;28;20447;-72
2023/05/15 10:05:28;;;;;;;6.93;5.87;;;18.30;92.80;;;;;;5056554;28;20461;-73
2023/05/15 10:08:14;;;;;;;8.37;6.60;;;18.60;93.30;;;;;;5047391;28;20451;-72
2023/05/15 10:11:01;;;;;;;10.70;8.17;;;18.80;89.30;;;;;;5049619;28;21008;-72
2023/05/15 10:13:47;;;;;;;9.73;7.70;;;18.90;91.70;;;;;;5040981;28;20491;-73
2023/05/15 10:16:34;;;;;;;10.73;8.60;;;18.90;90.40;;;;;;5049379;28;20948;-72
2023/05/15 10:19:21;;;;;;;11.27;8.00;;;19.00;90.20;;;;;;5048947;28;20981;-72
2023/05/15 10:22:09;;;;;;;11.73;9.30;;;19.20;87.90;;;;;;5039837;28;20449;-72
2023/05/15 10:25:00;;;;;;;10.40;7.57;;;19.10;81.40;;;;;;5044948;28;20468;-73
2023/05/15 10:27:47;;;;;;;11.10;7.40;;;19.30;81.60;;;;;;5049719;28;20451;-72
2023/05/15 10:30:33;;;;;;;12.77;8.00;;;19.30;74.00;;;;;;5051356;28;20463;-73
2023/05/15 10:33:20;;;;;;;11.63;8.17;;;19.20;76.10;;;;;;5042190;28;20418;-73
2023/05/15 10:36:07;;;;;;;15.43;10.63;;;19.30;77.20;;;;;;5044687;28;20498;-73
2023/05/15 10:38:54;;;;;;;13.40;9.63;;;19.40;80.10;;;;;;5043892;28;20450;-72
2023/05/15 10:41:40;;;;;;;7.37;6.50;;;19.50;78.80;;;;;;5043571;28;20502;-73
2023/05/15 10:44:25;;;;;;;7.70;6.03;;;19.70;65.70;;;;;;5049961;28;20464;-72
2023/05/15 10:47:11;;;;;;;12.63;5.40;;;19.80;67.00;;;;;;5048639;28;20478;-72
2023/05/15 10:49:57;;;;;;;10.73;8.50;;;20.00;66.40;;;;;;5037932;28;20443;-73
2023/05/15 10:52:42;;;;;;;13.97;8.90;;;20.20;68.30;;;;;;5046874;28;20470;-73
2023/05/15 10:55:30;;;;;;;11.33;7.40;;;20.40;66.30;;;;;;5041424;28;20455;-73
2023/05/15 10:58:16;;;;;;;8.80;6.73;;;20.60;65.40;;;;;;5045186;28;20849;-73
2023/05/15 11:01:02;;;;;;;7.07;5.70;;;20.40;55.10;;;;;;5044772;28;20514;-72
2023/05/15 11:03:48;;;;;;;10.20;5.47;;;20.40;57.60;;;;;;5046609;28;20533;-73
2023/05/15 11:06:34;;;;;;;10.00;5.80;;;20.40;50.20;;;;;;5044441;28;20586;-72
2023/05/15 11:09:36;;;;;;;6.00;4.93;;;20.60;50.20;;;;;;5047937;28;20806;-73
2023/05/15 11:12:23;;;;;;;7.17;5.80;;;20.80;45.40;;;;;;5039458;28;20995;-73
2023/05/15 11:15:19;;;;;;;6.03;4.63;;;20.90;46.40;;;;;;5043516;28;20546;-73
2023/05/15 11:18:06;;;;;;;9.73;5.60;;;21.00;47.60;;;;;;5047215;28;20598;-73
2023/05/15 11:21:10;;;;;;;8.03;5.60;;;21.10;41.70;;;;;;5049281;28;20804;-72
2023/05/15 11:24:04;;;;;;;7.10;5.70;;;20.80;41.00;;;;;;5052284;28;20486;-71
2023/05/15 11:26:52;;;;;;;5.87;5.27;;;20.80;40.40;;;;;;5056059;28;20487;-73
2023/05/15 11:30:12;;;;;;;9.10;6.20;;;21.00;42.40;;;;;;5044985;28;20451;-70
2023/05/15 11:33:00;;;;;;;6.53;5.90;;;21.10;40.70;;;;;;5041215;28;20924;-71
2023/05/15 11:35:47;;;;;;;16.73;6.00;;;21.20;41.60;;;;;;5047312;28;20465;-72
2023/05/15 11:38:37;;;;;;;9.40;7.63;;;21.00;40.60;;;;;;5044121;28;20463;-72
2023/05/15 11:41:30;;;;;;;8.10;5.33;;;20.80;44.60;;;;;;5046823;28;20453;-72
2023/05/15 11:44:20;;;;;;;5.93;4.37;;;20.50;40.10;;;;;;5050319;28;20545;-71
2023/05/15 11:47:09;;;;;;;6.83;4.60;;;20.50;32.90;;;;;;5047719;28;20440;-71
2023/05/15 11:49:55;;;;;;;8.20;5.50;;;20.60;32.70;;;;;;5041997;28;20565;-71
2023/05/15 11:52:41;;;;;;;8.10;6.47;;;20.70;35.90;;;;;;5047868;28;20569;-71
2023/05/15 11:55:27;;;;;;;8.30;5.40;;;20.60;39.00;;;;;;5044277;28;21337;-71
2023/05/15 11:58:14;;;;;;;7.53;6.00;;;20.50;40.10;;;;;;5045961;28;20587;-71
2023/05/15 12:00:59;;;;;;;8.60;7.20;;;20.40;42.90;;;;;;5038448;28;20427;-72
2023/05/15 12:03:47;;;;;;;11.60;9.33;;;20.40;44.00;;;;;;5041165;28;20489;-71
2023/05/15 12:06:33;;;;;;;9.47;8.00;;;20.20;44.80;;;;;;5047795;28;20475;-71
2023/05/15 12:09:21;;;;;;;9.20;7.60;;;20.10;43.70;;;;;;5052187;28;20494;-71
2023/05/15 12:12:13;;;;;;;16.07;8.13;;;20.00;48.50;;;;;;5047171;28;20829;-70
2023/05/15 12:14:59;;;;;;;10.53;8.03;;;19.90;48.50;;;;;;5052336;28;20595;-71
2023/05/15 12:17:45;;;;;;;8.70;6.50;;;19.80;47.00;;;;;;5047933;28;20468;-70
2023/05/15 12:20:33;;;;;;;11.37;6.67;;;19.70;43.60;;;;;;5045487;28;20455;-71
2023/05/15 12:23:21;;;;;;;13.27;7.53;;;19.70;47.10;;;;;;5049168;28;20447;-70
2023/05/15 12:26:07;;;;;;;18.33;10.10;;;19.70;47.30;;;;;;5052623;28;20891;-70
2023/05/15 12:28:53;;;;;;;11.50;8.70;;;19.70;49.00;;;;;;5044854;28;20462;-72
2023/05/15 12:31:38;;;;;;;7.73;6.13;;;19.70;52.00;;;;;;5043243;28;20624;-72
2023/05/15 12:34:24;;;;;;;5.67;3.50;;;19.70;52.20;;;;;;5047909;28;20486;-72
2023/05/15 12:37:13;;;;;;;4.30;3.40;;;19.80;44.90;;;;;;5042592;28;20474;-72
2023/05/15 12:40:01;;;;;;;4.40;2.93;;;19.80;42.90;;;;;;5045988;28;20976;-72
2023/05/15 12:42:52;;;;;;;4.37;3.20;;;19.80;41.20;;;;;;5049869;28;20794;-72
2023/05/15 12:45:39;;;;;;;5.60;4.13;;;20.10;40.90;;;;;;5048602;28;20521;-71
2023/05/15 12:48:30;;;;;;;7.20;4.37;;;20.20;37.10;;;;;;5051548;28;20835;-72
2023/05/15 12:51:17;;;;;;;4.97;4.00;;;20.30;37.60;;;;;;5047670;28;20780;-72
2023/05/15 12:54:04;;;;;;;5.90;4.27;;;20.20;38.10;;;;;;5055304;28;20466;-72
2023/05/15 12:56:50;;;;;;;6.67;3.90;;;20.10;39.90;;;;;;5049451;28;20457;-72
2023/05/15 12:59:35;;;;;;;8.00;4.03;;;20.00;35.30;;;;;;5050615;28;20454;-72
2023/05/15 13:02:22;;;;;;;7.93;5.07;;;19.90;36.60;;;;;;5049055;28;20564;-72
2023/05/15 13:05:08;;;;;;;12.33;6.13;;;20.00;39.60;;;;;;5057752;28;20466;-71
2023/05/15 13:07:54;;;;;;;8.97;7.13;;;20.30;41.80;;;;;;5046132;28;20456;-72
2023/05/15 13:10:40;;;;;;;8.30;6.67;;;20.60;43.20;;;;;;5039886;28;20741;-71
2023/05/15 13:13:41;;;;;;;9.63;6.27;;;21.00;42.30;;;;;;5046494;28;20947;-71
2023/05/15 13:16:28;;;;;;;11.07;6.50;;;21.40;44.70;;;;;;5047751;28;20802;-71
2023/05/15 13:19:14;;;;;;;8.43;6.60;;;21.70;40.10;;;;;;5051369;28;20801;-71
2023/05/15 13:22:00;;;;;;;7.30;5.90;;;22.00;36.00;;;;;;5050442;28;20439;-71
2023/05/15 13:24:45;;;;;;;8.70;5.23;;;22.30;37.00;;;;;;5053574;28;20501;-71
2023/05/15 13:27:32;;;;;;;10.93;7.70;;;22.60;35.40;;;;;;5052618;28;20444;-71
2023/05/15 13:30:18;;;;;;;11.80;6.93;;;22.40;35.40;;;;;;5047785;28;20814;-71
2023/05/15 13:33:03;;;;;;;8.70;6.60;;;22.10;37.30;;;;;;5049474;28;20480;-71
2023/05/15 13:35:49;;;;;;;9.63;7.00;;;21.80;41.50;;;;;;5058432;28;20570;-71
2023/05/15 13:38:34;;;;;;;6.40;5.23;;;21.50;43.80;;;;;;5060112;28;20439;-71
2023/05/15 13:41:21;;;;;;;8.93;5.87;;;21.30;39.20;;;;;;5045827;28;20452;-71
2023/05/15 13:44:07;;;;;;;13.87;7.20;;;20.80;40.40;;;;;;5052470;28;20564;-71
2023/05/15 13:46:53;;;;;;;7.10;6.03;;;20.50;38.70;;;;;;5043158;28;20877;-71
2023/05/15 13:49:38;;;;;;;9.63;6.70;;;20.10;39.70;;;;;;5051691;28;20462;-71
2023/05/15 13:52:24;;;;;;;10.60;5.40;;;19.80;42.20;;;;;;5051033;28;20446;-71
2023/05/15 13:55:10;;;;;;;7.50;5.50;;;19.50;42.40;;;;;;5058689;28;20579;-71
2023/05/15 13:57:55;;;;;;;7.60;5.10;;;19.20;44.40;;;;;;5044091;28;20979;-71
2023/05/15 14:00:43;;;;;;;11.30;5.60;;;19.10;47.00;;;;;;5046303;28;20850;-71
2023/05/15 14:03:28;;;;;;;7.77;5.77;;;19.10;50.50;;;;;;5046377;28;20470;-71
2023/05/15 14:06:14;;;;;;;7.67;5.30;;;19.10;54.10;;;;;;5041844;28;20494;-72
2023/05/15 14:08:59;;;;;;;12.83;6.30;;;19.10;58.50;;;;;;5043625;28;20598;-72
2023/05/15 14:11:45;;;;;;;8.40;5.77;;;19.10;57.40;;;;;;5047987;28;20522;-72
2023/05/15 14:14:31;;;;;;;8.27;5.73;;;19.10;58.00;;;;;;5053327;28;20421;-72
2023/05/15 14:17:18;;;;;;;7.40;5.50;;;19.10;59.80;;;;;;5047791;28;20420;-71
2023/05/15 14:20:03;;;;;;;8.03;6.77;;;19.10;61.10;;;;;;5047809;28;20443;-71
2023/05/15 14:22:48;;;;;;;8.50;5.67;;;19.00;61.60;;;;;;5044384;28;20444;-71
2023/05/15 14:25:34;;;;;;;9.70;7.07;;;18.90;64.60;;;;;;5050802;28;20534;-72
2023/05/15 14:28:20;;;;;;;8.70;6.20;;;18.80;66.70;;;;;;5034377;28;20441;-70